Terminal Aerodrome Forecast
Issued by NWS Twin Cities, MN

Home | Current Version | Previous Version | Text Only | Print | Product List | Glossary On
Versions: 1 2 3 4 5 6 7 8 9 10 11 12 13 14 15 16 17 18
000
FTUS43 KMPX 182300
TAFEAU
TAF
KEAU 182330Z 1900/1924 13005KT P6SM SKC
     FM190800 15005KT 3SM BR FEW005
      TEMPO 1908/1910 1SM BR BKN005
     FM191000 16006KT 1/2SM FG OVC002
     FM191400 17012G18KT P6SM BKN010
     FM191800 18017G24KT P6SM VCSH BKN025 OVC040
      AMD NOT SKED=

USA.gov is the U.S. government's official web portal to all federal, state and local government web resources and services.